Hauptseite
METAR-TAF:

METAR-TAF

Flughäfen :

Naval Air Station JRB Fort Worth (Carswell Field)

Fort Worth, Texas, Vereinigte Staaten

Breite: 32-45-57N, Länge: 097-26-00W, Höhe: 198 m

Beobachtung

Neuester Wetterbericht von vor 13 Minuten, um 08:52 UTC
Wind 6 kt aus Nord/Nordwest
Temperatur 17°C
Luftfeuchtigkeit 34%
Luftdruck 1019 hPa
Himmel klar

METAR: KNFW 240852Z AUTO 33006KT CLR 17/01 A3010 RMK AO2 SLP176 T01670011 53004 VISNO N $

Zeit: 03:05 (09:05 UTC)

Prognose

Gültige Prognose vom 24 um 07 UTC bis 25 um 07 UTC
Wind 10 kt aus West
Sichtweite: 2412 m
Leicht bewölkt in der Höhe von 25000 ft

TAF: KNFW 2407/2507 28010KT 9999 FEW250 QNH3000INS AUTOMATED SENSOR METWATCH 2407 TIL 2412 T02/2414Z T18/2422Z FN00204

Wetterbeobachtungen und Prognosen von mehr als 4000 Flughäfen (METAR und TAF Bericht).

Die verfügbaren Stationen werden durch gelbe und rote Markierungen auf der Karte dargestellt.

Führen Sie die Maus auf sie, um den Namen der Station zu sehen.

Darauf klicken, um die Beobachtung von Wetterbeobachtungen und Prognosen zu sehen.

Um die Karte zu ändern : klicken Sie auf den grünen Tasten mit einem schwarzen Kreuz Zum Vergrößern, auf den grünen Button mit einem Gedankenstrich zu verkleinern, oder auf die grünen Pfeile für benachbarte Karten.


METAR-TAF: